Terminal Aerodrome Forecast
Issued by NWS Charleston, WV

Current Version | Previous Version | Text Only | Print | Product List | Glossary Off
Versions: 1 2 3 4 5 6 7 8 9 10 11 12 13 14 15 16 17 18 19 20 21 22

683
FTUS41 KRLX 091757 RRA
TAFHTS
TAF
KHTS 091757Z 0918/1018 26009KT 5SM -SHSN BKN020 OVC030
      TEMPO 0918/0922 2SM -SHSN BR OVC015
     FM092300 26009KT 6SM -SHSN OVC025
     FM100100 27009KT P6SM OVC020
     FM101000 27008KT 5SM -SHSN OVC015
     FM101700 27008G16KT 6SM -SHSN BKN025=

USA.gov is the U.S. government's official web portal to all federal, state and local government web resources and services.